Time;durP1;ratioP1;P1;durP2;ratioP2;P2;SDS_P1;SDS_P2;PMS_P1;PMS_P2;Temp;Humidity;BMP_temperature;BMP_pressure;BME280_temperature;BME280_humidity;BME280_pressure;Samples;Min_cycle;Max_cycle;Signal;HPM_P1;HPM_P2
2023/01/10 04:01:24;;;;;;;;;;;4.90;99.90;;;;;;5787182;23;19934;-68
2023/01/10 04:03:51;;;;;;;;;;;4.90;99.90;;;;;;4972019;28;20307;-67
2023/01/10 04:06:19;;;;;;;;;;;4.90;99.90;;;;;;4972546;28;20001;-67
2023/01/10 04:08:45;;;;;;;;;;;4.90;99.90;;;;;;4972035;28;19958;-67
2023/01/10 04:11:12;;;;;;;;;;;4.90;99.90;;;;;;4971828;28;19981;-68
2023/01/10 04:13:40;;;;;;;;;;;4.90;99.90;;;;;;4970560;28;19973;-67
2023/01/10 04:16:07;;;;;;;;;;;4.90;99.90;;;;;;4964524;28;19965;-66
2023/01/10 04:18:36;;;;;;;;;;;4.90;99.90;;;;;;4969192;28;19933;-66
2023/01/10 04:21:02;;;;;;;;;;;4.90;99.90;;;;;;4978538;28;20377;-67
2023/01/10 04:23:29;;;;;;;;;;;4.90;99.90;;;;;;4969014;28;19980;-67
2023/01/10 04:25:56;;;;;;;;;;;4.90;99.90;;;;;;4976474;28;19926;-67
2023/01/10 04:28:22;;;;;;;;;;;4.90;99.90;;;;;;4978544;28;19925;-67
2023/01/10 04:30:49;;;;;;;;;;;4.90;99.90;;;;;;4967254;28;19993;-67
2023/01/10 04:33:16;;;;;;;;;;;4.90;99.90;;;;;;4973432;28;19958;-66
2023/01/10 04:35:48;;;;;;;;;;;4.90;99.90;;;;;;4973298;28;19977;-66
2023/01/10 04:38:14;;;;;;;;;;;4.90;99.90;;;;;;4975317;28;19981;-66
2023/01/10 04:40:41;;;;;;;;;;;4.80;99.90;;;;;;4979868;28;19930;-65
2023/01/10 04:43:08;;;;;;;;;;;4.80;99.90;;;;;;4969182;28;20427;-66
2023/01/10 04:45:35;;;;;;;;;;;4.80;99.90;;;;;;4966616;28;19926;-67
2023/01/10 04:48:01;;;;;;;;;;;4.70;99.90;;;;;;4971974;28;19926;-66
2023/01/10 04:50:28;;;;;;;;;;;4.70;99.90;;;;;;4971051;28;20286;-66
2023/01/10 04:52:56;;;;;;;;;;;4.60;99.90;;;;;;4980315;28;20353;-66
2023/01/10 04:55:23;;;;;;;;;;;4.60;99.90;;;;;;4961318;28;19926;-66
2023/01/10 04:57:50;;;;;;;;;;;4.60;99.90;;;;;;4976323;28;19930;-66
2023/01/10 05:03:46;;;;;;;;;;;4.50;99.90;;;;;;4976155;28;20384;-67
2023/01/10 05:06:13;;;;;;;;;;;4.50;99.90;;;;;;4964797;28;19932;-66
2023/01/10 05:08:41;;;;;;;;;;;4.50;99.90;;;;;;4973053;28;19945;-66
2023/01/10 05:11:08;;;;;;;;;;;4.50;99.90;;;;;;4971551;28;20368;-66
2023/01/10 05:13:35;;;;;;;;;;;4.40;99.90;;;;;;4975431;28;20316;-66
2023/01/10 05:16:02;;;;;;;;;;;4.40;99.90;;;;;;4965687;28;19926;-67
2023/01/10 05:18:29;;;;;;;;;;;4.30;99.90;;;;;;4978498;28;19933;-66
2023/01/10 05:20:59;;;;;;;;;;;4.30;99.90;;;;;;4974269;28;20357;-67
2023/01/10 05:23:26;;;;;;;;;;;4.30;99.90;;;;;;4969425;28;19984;-66
2023/01/10 05:25:54;;;;;;;;;;;4.30;99.90;;;;;;4975413;28;19926;-66
2023/01/10 05:28:21;;;;;;;;;;;4.20;99.90;;;;;;4964012;28;19973;-66
2023/01/10 05:30:48;;;;;;;;;;;4.20;99.90;;;;;;4980174;28;19926;-66
2023/01/10 05:33:15;;;;;;;;;;;4.30;99.90;;;;;;4980494;28;19934;-65
2023/01/10 05:35:42;;;;;;;;;;;4.30;99.90;;;;;;4969841;28;20385;-66
2023/01/10 05:38:08;;;;;;;;;;;4.30;99.90;;;;;;4971556;28;19926;-65
2023/01/10 05:40:35;;;;;;;;;;;4.40;99.90;;;;;;4976929;28;19930;-66
2023/01/10 05:43:03;;;;;;;;;;;4.30;99.90;;;;;;4965062;28;19930;-66
2023/01/10 05:45:30;;;;;;;;;;;4.30;99.90;;;;;;4971011;28;19930;-67
2023/01/10 05:47:57;;;;;;;;;;;4.40;99.90;;;;;;4987230;28;19926;-67
2023/01/10 05:50:24;;;;;;;;;;;4.40;99.90;;;;;;4967176;28;19942;-67
2023/01/10 05:52:50;;;;;;;;;;;4.40;99.90;;;;;;4961050;28;19930;-67
2023/01/10 05:55:17;;;;;;;;;;;4.40;99.90;;;;;;4971250;28;19926;-67
2023/01/10 05:57:44;;;;;;;;;;;4.30;99.90;;;;;;4963998;28;19954;-67
2023/01/10 06:00:13;;;;;;;;;;;4.30;99.90;;;;;;4969212;28;19934;-67
2023/01/10 06:02:40;;;;;;;;;;;4.40;99.90;;;;;;4965951;28;19930;-67
2023/01/10 06:05:07;;;;;;;;;;;4.40;99.90;;;;;;4973098;28;19926;-66
2023/01/10 06:07:34;;;;;;;;;;;4.40;99.90;;;;;;4969613;28;19949;-67
2023/01/10 06:10:00;;;;;;;;;;;4.30;99.90;;;;;;4970068;28;19934;-66
2023/01/10 06:12:27;;;;;;;;;;;4.40;99.90;;;;;;4970476;28;19934;-67
2023/01/10 06:14:54;;;;;;;;;;;4.30;99.90;;;;;;4968313;28;20005;-67
2023/01/10 06:17:22;;;;;;;;;;;4.30;99.90;;;;;;4991385;28;19930;-66
2023/01/10 06:19:51;;;;;;;;;;;4.30;99.90;;;;;;4975044;28;20412;-67
2023/01/10 06:22:18;;;;;;;;;;;4.20;99.90;;;;;;4966803;28;19931;-66
2023/01/10 06:24:44;;;;;;;;;;;4.20;99.90;;;;;;4970832;28;19930;-67
2023/01/10 06:27:11;;;;;;;;;;;4.20;99.90;;;;;;4966295;28;19926;-66
2023/01/10 06:29:38;;;;;;;;;;;4.10;99.90;;;;;;4980662;28;19977;-66
2023/01/10 06:32:05;;;;;;;;;;;4.10;99.90;;;;;;4986013;28;19976;-66
2023/01/10 06:34:33;;;;;;;;;;;4.00;99.90;;;;;;4966889;28;19926;-66
2023/01/10 06:37:00;;;;;;;;;;;4.00;99.90;;;;;;4968971;28;20349;-66
2023/01/10 06:39:26;;;;;;;;;;;4.00;99.90;;;;;;4978955;28;19935;-66
2023/01/10 06:41:53;;;;;;;;;;;4.00;99.90;;;;;;4969453;28;19926;-66
2023/01/10 06:44:20;;;;;;;;;;;3.90;99.90;;;;;;4978400;28;19930;-66
2023/01/10 06:46:47;;;;;;;;;;;3.80;99.90;;;;;;4968012;28;19930;-67
2023/01/10 06:49:13;;;;;;;;;;;3.90;99.90;;;;;;4977404;28;19927;-66
2023/01/10 06:51:42;;;;;;;;;;;3.80;99.90;;;;;;4974862;28;19930;-67
2023/01/10 06:54:08;;;;;;;;;;;3.80;99.90;;;;;;4974646;28;19926;-67
2023/01/10 06:56:35;;;;;;;;;;;3.80;99.90;;;;;;4978890;28;19926;-68
2023/01/10 06:59:02;;;;;;;;;;;3.80;99.90;;;;;;4967398;28;19934;-67
2023/01/10 07:01:29;;;;;;;;;;;3.80;99.90;;;;;;4965788;28;19933;-66
2023/01/10 07:03:55;;;;;;;;;;;3.80;99.90;;;;;;4977868;28;19926;-66
2023/01/10 07:06:22;;;;;;;;;;;3.80;99.90;;;;;;4970355;28;19956;-67
2023/01/10 07:08:50;;;;;;;;;;;3.80;99.90;;;;;;4976122;28;20277;-67
2023/01/10 07:11:17;;;;;;;;;;;3.80;99.90;;;;;;4975628;28;19926;-67
2023/01/10 07:13:44;;;;;;;;;;;3.80;99.90;;;;;;4979022;28;20352;-67
2023/01/10 07:16:11;;;;;;;;;;;3.90;99.90;;;;;;4975930;28;20364;-66
2023/01/10 07:18:39;;;;;;;;;;;3.90;99.90;;;;;;4977501;28;19926;-67
2023/01/10 07:21:06;;;;;;;;;;;3.90;99.90;;;;;;4981026;28;19925;-66
2023/01/10 07:23:33;;;;;;;;;;;4.00;99.90;;;;;;4966054;28;19926;-68
2023/01/10 07:26:03;;;;;;;;;;;4.00;99.90;;;;;;4972972;28;19926;-66
2023/01/10 07:28:30;;;;;;;;;;;4.00;99.90;;;;;;4974802;28;20025;-66
2023/01/10 07:30:58;;;;;;;;;;;3.90;99.90;;;;;;4976045;28;19926;-67
2023/01/10 07:33:25;;;;;;;;;;;4.00;99.90;;;;;;4967219;28;19949;-66
2023/01/10 07:35:52;;;;;;;;;;;3.90;99.90;;;;;;4970779;28;19932;-66
2023/01/10 07:38:18;;;;;;;;;;;4.00;99.90;;;;;;4973768;28;19926;-65
2023/01/10 07:40:45;;;;;;;;;;;4.00;99.90;;;;;;4973663;28;19926;-66
2023/01/10 07:43:14;;;;;;;;;;;4.00;99.90;;;;;;4973518;28;19926;-65
2023/01/10 07:45:40;;;;;;;;;;;4.00;99.90;;;;;;4973390;28;19926;-66
2023/01/10 07:48:07;;;;;;;;;;;4.00;99.90;;;;;;4973818;28;19934;-66
2023/01/10 07:50:35;;;;;;;;;;;4.00;99.90;;;;;;4973407;28;19973;-66
2023/01/10 07:53:02;;;;;;;;;;;4.00;99.90;;;;;;4973716;28;19937;-65
2023/01/10 07:55:29;;;;;;;;;;;4.00;99.90;;;;;;4973251;28;20348;-66
2023/01/10 07:57:56;;;;;;;;;;;4.00;99.90;;;;;;4973326;28;19926;-65
2023/01/10 08:00:25;;;;;;;;;;;4.00;99.90;;;;;;4969226;28;19926;-65
2023/01/10 08:02:53;;;;;;;;;;;4.00;99.90;;;;;;4974878;28;19980;-65
2023/01/10 08:05:19;;;;;;;;;;;4.00;99.90;;;;;;4982340;28;19926;-65
2023/01/10 08:07:46;;;;;;;;;;;4.10;99.90;;;;;;4977501;28;19930;-65
2023/01/10 08:10:13;;;;;;;;;;;4.10;99.90;;;;;;4980679;28;19932;-66
2023/01/10 08:12:40;;;;;;;;;;;4.20;99.90;;;;;;4973472;28;19926;-66
2023/01/10 08:15:07;;;;;;;;;;;4.20;99.90;;;;;;4979029;28;19943;-65
2023/01/10 08:17:35;;;;;;;;;;;4.30;99.90;;;;;;4976058;28;19933;-66
2023/01/10 08:20:03;;;;;;;;;;;4.30;99.90;;;;;;4985689;28;19929;-66
2023/01/10 08:22:29;;;;;;;;;;;4.30;99.90;;;;;;4962053;28;19948;-66
2023/01/10 08:24:56;;;;;;;;;;;4.40;99.90;;;;;;4969971;28;19930;-65
2023/01/10 08:27:23;;;;;;;;;;;4.40;99.90;;;;;;4974066;28;19930;-65
2023/01/10 08:29:50;;;;;;;;;;;4.50;99.90;;;;;;4965083;28;19993;-65
2023/01/10 08:32:17;;;;;;;;;;;4.50;99.90;;;;;;4978042;28;19934;-66
2023/01/10 08:34:45;;;;;;;;;;;4.60;99.90;;;;;;4973398;28;20324;-65
2023/01/10 08:37:12;;;;;;;;;;;4.60;99.90;;;;;;4979884;28;19930;-64
2023/01/10 08:39:39;;;;;;;;;;;4.70;99.90;;;;;;4978769;28;20341;-65
2023/01/10 08:42:06;;;;;;;;;;;4.70;99.90;;;;;;4964753;28;19926;-65
2023/01/10 08:44:33;;;;;;;;;;;4.70;99.90;;;;;;4972927;28;19930;-65
2023/01/10 08:47:00;;;;;;;;;;;4.80;99.90;;;;;;4964463;28;19948;-65
2023/01/10 08:49:26;;;;;;;;;;;4.80;99.90;;;;;;4977962;28;19926;-65
2023/01/10 08:51:54;;;;;;;;;;;4.90;99.90;;;;;;4974847;28;20352;-66
2023/01/10 08:54:21;;;;;;;;;;;5.00;99.90;;;;;;4977538;28;19934;-65
2023/01/10 08:56:48;;;;;;;;;;;5.00;99.90;;;;;;4974037;28;19926;-66
2023/01/10 08:59:15;;;;;;;;;;;5.10;99.90;;;;;;4976250;28;20459;-66
2023/01/10 09:01:42;;;;;;;;;;;5.10;99.90;;;;;;4964379;28;20018;-66
2023/01/10 09:04:09;;;;;;;;;;;5.20;99.90;;;;;;4971920;28;19925;-66
2023/01/10 09:06:36;;;;;;;;;;;5.30;99.90;;;;;;4973854;28;19926;-66
2023/01/10 09:09:05;;;;;;;;;;;5.40;99.90;;;;;;4977304;28;19926;-66
2023/01/10 09:11:31;;;;;;;;;;;5.50;99.90;;;;;;4973470;28;19969;-66
2023/01/10 09:13:58;;;;;;;;;;;5.60;99.90;;;;;;4974984;28;19926;-65
2023/01/10 09:16:25;;;;;;;;;;;5.70;99.90;;;;;;4972188;28;19934;-66
2023/01/10 09:18:52;;;;;;;;;;;5.80;99.90;;;;;;4974403;28;19957;-65
2023/01/10 09:21:19;;;;;;;;;;;5.90;99.90;;;;;;4972007;28;19972;-65
2023/01/10 09:23:45;;;;;;;;;;;6.00;99.90;;;;;;4975234;28;19940;-66
2023/01/10 09:26:14;;;;;;;;;;;6.10;99.90;;;;;;4972032;28;19931;-63
2023/01/10 09:28:40;;;;;;;;;;;6.10;99.90;;;;;;4970459;28;19926;-62
2023/01/10 09:31:07;;;;;;;;;;;6.20;99.90;;;;;;4966281;28;19926;-62
2023/01/10 09:33:35;;;;;;;;;;;6.30;99.90;;;;;;4972174;28;19927;-63
2023/01/10 09:36:01;;;;;;;;;;;6.40;99.90;;;;;;4966640;28;19926;-66
2023/01/10 09:38:28;;;;;;;;;;;6.40;99.90;;;;;;4971777;28;19981;-66
2023/01/10 09:41:02;;;;;;;;;;;6.40;99.90;;;;;;4968426;28;19926;-65
2023/01/10 09:43:37;;;;;;;;;;;6.60;99.90;;;;;;4974638;28;19926;-66
2023/01/10 09:46:06;;;;;;;;;;;6.60;99.90;;;;;;4971693;28;19926;-67
2023/01/10 09:48:37;;;;;;;;;;;6.70;99.90;;;;;;4971739;28;20404;-67
2023/01/10 09:51:19;;;;;;;;;;;6.80;99.90;;;;;;4972026;28;20304;-66
2023/01/10 09:53:46;;;;;;;;;;;6.80;99.90;;;;;;4967539;28;20012;-66
2023/01/10 09:56:13;;;;;;;;;;;7.00;99.90;;;;;;4974567;28;20404;-66
2023/01/10 09:58:42;;;;;;;;;;;7.20;99.90;;;;;;4973401;28;19933;-66
2023/01/10 10:01:11;;;;;;;;;;;7.30;99.90;;;;;;4973439;28;19930;-66
2023/01/10 10:03:41;;;;;;;;;;;7.50;99.90;;;;;;4986066;28;19926;-67
2023/01/10 10:06:09;;;;;;;;;;;7.60;99.90;;;;;;4979213;28;19976;-66
2023/01/10 10:08:36;;;;;;;;;;;7.70;99.90;;;;;;4971445;28;19926;-66
2023/01/10 10:11:10;;;;;;;;;;;8.00;99.90;;;;;;4977124;28;19927;-67
2023/01/10 10:13:46;;;;;;;;;;;8.10;99.90;;;;;;4979085;28;19932;-66
2023/01/10 10:16:16;;;;;;;;;;;8.10;99.90;;;;;;4975372;28;19930;-65
2023/01/10 10:18:48;;;;;;;;;;;8.00;99.90;;;;;;4971401;28;19933;-66
2023/01/10 10:21:19;;;;;;;;;;;7.70;99.90;;;;;;4972797;28;19934;-66
2023/01/10 10:24:00;;;;;;;;;;;7.90;99.90;;;;;;4970570;28;19926;-66
2023/01/10 10:26:29;;;;;;;;;;;8.00;99.90;;;;;;4971515;28;19926;-66
2023/01/10 10:29:07;;;;;;;;;;;8.30;99.90;;;;;;4972885;28;19926;-65
2023/01/10 10:31:39;;;;;;;;;;;8.50;99.90;;;;;;4974504;28;19934;-66
2023/01/10 10:34:10;;;;;;;;;;;8.70;99.90;;;;;;4974052;28;19933;-66
2023/01/10 10:36:39;;;;;;;;;;;9.50;99.90;;;;;;4974110;28;19926;-66
2023/01/10 10:39:06;;;;;;;;;;;10.20;99.90;;;;;;4970642;28;19985;-66
2023/01/10 10:41:35;;;;;;;;;;;10.60;99.90;;;;;;4974220;28;19979;-66
2023/01/10 10:44:10;;;;;;;;;;;10.90;99.90;;;;;;4973231;28;19933;-66
2023/01/10 10:46:37;;;;;;;;;;;11.40;99.90;;;;;;4973328;28;19981;-66
2023/01/10 10:49:11;;;;;;;;;;;11.70;99.90;;;;;;4975773;28;20417;-63
2023/01/10 10:51:41;;;;;;;;;;;10.80;99.90;;;;;;4969936;28;19988;-66
2023/01/10 10:54:11;;;;;;;;;;;10.70;99.90;;;;;;4972976;28;20025;-66
2023/01/10 10:56:37;;;;;;;;;;;10.40;99.90;;;;;;4964402;28;19976;-66
2023/01/10 10:59:06;;;;;;;;;;;10.00;99.90;;;;;;4966048;28;19997;-66
2023/01/10 11:01:33;;;;;;;;;;;9.50;99.90;;;;;;4965920;28;19934;-66
2023/01/10 11:04:01;;;;;;;;;;;9.60;99.90;;;;;;4969736;28;19934;-65
2023/01/10 11:06:30;;;;;;;;;;;9.50;99.90;;;;;;4966316;28;19926;-65
2023/01/10 11:08:58;;;;;;;;;;;9.30;99.90;;;;;;4983426;28;19976;-65
2023/01/10 11:11:26;;;;;;;;;;;9.10;99.90;;;;;;4974139;28;19926;-66
2023/01/10 11:13:54;;;;;;;;;;;9.20;99.90;;;;;;4979720;28;19934;-65
2023/01/10 11:16:26;;;;;;;;;;;9.40;99.90;;;;;;4970449;28;19934;-66
2023/01/10 11:19:09;;;;;;;;;;;9.40;99.90;;;;;;4979460;28;19937;-66
2023/01/10 11:21:38;;;;;;;;;;;9.60;99.90;;;;;;4968663;28;19926;-66
2023/01/10 11:24:05;;;;;;;;;;;9.60;99.90;;;;;;4969552;28;19930;-66
2023/01/10 11:26:36;;;;;;;;;;;9.70;99.90;;;;;;4980057;28;19989;-66
2023/01/10 11:29:05;;;;;;;;;;;9.50;99.90;;;;;;4976332;28;19933;-65
2023/01/10 11:31:34;;;;;;;;;;;9.80;99.90;;;;;;4983850;28;19925;-66
2023/01/10 11:34:02;;;;;;;;;;;9.80;99.90;;;;;;4971846;28;19930;-66
2023/01/10 11:36:36;;;;;;;;;;;9.50;99.90;;;;;;4969237;28;20396;-65
2023/01/10 11:39:04;;;;;;;;;;;9.40;99.90;;;;;;4977727;28;19929;-65
2023/01/10 11:41:33;;;;;;;;;;;9.80;99.90;;;;;;4973868;28;19926;-65
2023/01/10 11:44:15;;;;;;;;;;;10.00;99.90;;;;;;4969281;28;19927;-66
2023/01/10 11:46:44;;;;;;;;;;;10.50;99.90;;;;;;4969488;28;19933;-66
2023/01/10 11:49:18;;;;;;;;;;;10.70;99.90;;;;;;4970861;28;21515;-66
2023/01/10 11:51:46;;;;;;;;;;;10.50;99.90;;;;;;4969407;28;20400;-66
2023/01/10 11:54:17;;;;;;;;;;;10.10;99.90;;;;;;4969065;28;19934;-66
2023/01/10 11:56:55;;;;;;;;;;;10.10;99.90;;;;;;4969200;28;19930;-66
2023/01/10 11:59:22;;;;;;;;;;;10.40;99.90;;;;;;4967261;28;19926;-65
2023/01/10 12:01:54;;;;;;;;;;;10.50;99.90;;;;;;4968103;28;19929;-66
2023/01/10 12:04:22;;;;;;;;;;;10.50;99.90;;;;;;4971080;28;19933;-66
2023/01/10 12:06:50;;;;;;;;;;;10.50;99.90;;;;;;4982639;28;20290;-66
2023/01/10 12:09:32;;;;;;;;;;;10.60;99.90;;;;;;4974004;28;19926;-66
2023/01/10 12:12:01;;;;;;;;;;;10.30;99.90;;;;;;4975874;28;19929;-66
2023/01/10 12:14:28;;;;;;;;;;;10.20;99.90;;;;;;4968016;28;19934;-66
2023/01/10 12:17:00;;;;;;;;;;;10.20;99.90;;;;;;4972161;28;19926;-65
2023/01/10 12:19:28;;;;;;;;;;;10.10;99.90;;;;;;4984000;28;20021;-65
2023/01/10 12:21:55;;;;;;;;;;;9.60;99.90;;;;;;4969383;28;19946;-67
2023/01/10 12:24:24;;;;;;;;;;;9.70;99.90;;;;;;4979124;28;19926;-66
2023/01/10 12:26:52;;;;;;;;;;;9.60;99.90;;;;;;4975733;28;20345;-66
2023/01/10 12:29:21;;;;;;;;;;;9.50;99.90;;;;;;4972835;28;19933;-66
2023/01/10 12:31:49;;;;;;;;;;;9.40;99.90;;;;;;4966572;28;19973;-64
2023/01/10 12:34:19;;;;;;;;;;;9.20;99.90;;;;;;4962512;28;19926;-67
2023/01/10 12:36:54;;;;;;;;;;;9.10;99.90;;;;;;4972317;28;20000;-67
2023/01/10 12:39:22;;;;;;;;;;;8.90;99.90;;;;;;4985466;28;19926;-67
2023/01/10 12:44:40;;;;;;;;;;;8.90;99.90;;;;;;4965731;28;19922;-66
2023/01/10 12:47:11;;;;;;;;;;;8.70;99.90;;;;;;4965896;28;19953;-67
2023/01/10 12:49:42;;;;;;;;;;;8.70;99.90;;;;;;4966637;28;19926;-67
2023/01/10 12:52:12;;;;;;;;;;;8.70;99.90;;;;;;4965536;28;19933;-66
2023/01/10 12:54:39;;;;;;;;;;;8.70;99.90;;;;;;4972689;28;19930;-66
2023/01/10 12:57:11;;;;;;;;;;;8.60;99.90;;;;;;4972605;28;19926;-66
2023/01/10 12:59:40;;;;;;;;;;;8.70;99.90;;;;;;4970799;28;19926;-66
2023/01/10 13:02:11;;;;;;;;;;;8.80;99.90;;;;;;4978822;28;19926;-67
2023/01/10 13:04:40;;;;;;;;;;;8.80;99.90;;;;;;4967235;28;20011;-67
2023/01/10 13:07:10;;;;;;;;;;;8.70;99.90;;;;;;4970284;28;19927;-66
2023/01/10 13:09:37;;;;;;;;;;;8.70;99.90;;;;;;4971005;28;19926;-67
2023/01/10 13:12:07;;;;;;;;;;;8.70;99.90;;;;;;4964673;28;19930;-67
2023/01/10 13:14:36;;;;;;;;;;;8.60;99.90;;;;;;4964603;28;19933;-66
2023/01/10 13:17:08;;;;;;;;;;;8.60;99.90;;;;;;4967656;28;20306;-66
2023/01/10 13:19:35;;;;;;;;;;;8.60;99.90;;;;;;4964866;28;20392;-65
2023/01/10 13:22:18;;;;;;;;;;;8.50;99.90;;;;;;4971715;28;19988;-66
2023/01/10 13:24:54;;;;;;;;;;;8.40;99.90;;;;;;4970310;28;19987;-66
2023/01/10 13:27:21;;;;;;;;;;;8.50;99.90;;;;;;4957351;28;20361;-66
2023/01/10 13:29:48;;;;;;;;;;;8.50;99.90;;;;;;4966417;28;19933;-66
2023/01/10 13:32:19;;;;;;;;;;;8.50;99.90;;;;;;4966069;28;19996;-66
2023/01/10 13:34:46;;;;;;;;;;;8.50;99.90;;;;;;4967389;28;19926;-65
2023/01/10 13:37:21;;;;;;;;;;;8.50;99.90;;;;;;4970130;28;19931;-66
2023/01/10 13:39:51;;;;;;;;;;;8.40;99.90;;;;;;4967729;28;19933;-66
2023/01/10 13:45:15;;;;;;;;;;;8.30;99.90;;;;;;4963663;28;19931;-66
2023/01/10 13:47:58;;;;;;;;;;;8.30;99.90;;;;;;4967024;28;19926;-66
2023/01/10 13:50:45;;;;;;;;;;;8.20;99.90;;;;;;4980947;28;19930;-66
2023/01/10 13:53:31;;;;;;;;;;;8.20;99.90;;;;;;4970618;28;19973;-66
2023/01/10 13:55:59;;;;;;;;;;;8.20;99.90;;;;;;4961637;28;19981;-65
2023/01/10 14:04:08;;;;;;;;;;;8.10;99.90;;;;;;4968620;28;19930;-69
2023/01/10 14:06:39;;;;;;;;;;;8.10;99.90;;;;;;4971032;28;19939;-68
2023/01/10 14:09:27;;;;;;;;;;;8.10;99.90;;;;;;4971047;28;19926;-69
2023/01/10 14:11:57;;;;;;;;;;;8.10;99.90;;;;;;4970219;28;20021;-70
2023/01/10 14:14:26;;;;;;;;;;;8.10;99.90;;;;;;4980865;28;19980;-69
2023/01/10 14:16:54;;;;;;;;;;;8.10;99.90;;;;;;4971619;28;19927;-69
2023/01/10 14:19:24;;;;;;;;;;;8.00;99.90;;;;;;4964963;28;19938;-67
2023/01/10 14:21:52;;;;;;;;;;;8.00;99.90;;;;;;4968945;28;20440;-68
2023/01/10 14:24:23;;;;;;;;;;;8.00;99.90;;;;;;4971839;28;20325;-68
2023/01/10 14:26:51;;;;;;;;;;;8.00;99.90;;;;;;4971642;28;20029;-69
2023/01/10 14:29:20;;;;;;;;;;;8.00;99.90;;;;;;4970970;28;19926;-69
2023/01/10 14:31:47;;;;;;;;;;;8.00;99.90;;;;;;4970982;28;20317;-69
2023/01/10 14:34:19;;;;;;;;;;;7.90;99.90;;;;;;4971295;28;19937;-68
2023/01/10 14:36:50;;;;;;;;;;;8.00;99.90;;;;;;4971102;28;19954;-69
2023/01/10 14:39:17;;;;;;;;;;;8.00;99.90;;;;;;4974028;28;20025;-70
2023/01/10 14:41:44;;;;;;;;;;;8.00;99.90;;;;;;4974749;28;20401;-70
2023/01/10 14:44:16;;;;;;;;;;;8.00;99.90;;;;;;4974893;28;19927;-69
2023/01/10 14:46:46;;;;;;;;;;;8.10;99.90;;;;;;4974514;28;19933;-68
2023/01/10 14:49:20;;;;;;;;;;;8.10;99.90;;;;;;4976305;28;19930;-68
2023/01/10 14:51:49;;;;;;;;;;;8.00;99.90;;;;;;4974397;28;20341;-67
2023/01/10 14:54:17;;;;;;;;;;;8.00;99.90;;;;;;4974227;28;20008;-68
2023/01/10 14:56:45;;;;;;;;;;;8.00;99.90;;;;;;4974576;28;19934;-68
2023/01/10 14:59:25;;;;;;;;;;;7.90;99.90;;;;;;4974215;28;19933;-68
2023/01/10 15:01:55;;;;;;;;;;;7.90;99.90;;;;;;4970500;28;20381;-69
2023/01/10 15:04:23;;;;;;;;;;;7.80;99.90;;;;;;4968432;28;19926;-69
2023/01/10 15:06:51;;;;;;;;;;;7.70;99.90;;;;;;4974184;28;19926;-69
2023/01/10 15:09:18;;;;;;;;;;;7.70;99.90;;;;;;4974064;28;19926;-69
2023/01/10 15:11:45;;;;;;;;;;;7.60;99.90;;;;;;4974029;28;20393;-69
2023/01/10 15:14:16;;;;;;;;;;;7.60;99.90;;;;;;4974053;28;20389;-69
2023/01/10 15:16:43;;;;;;;;;;;7.60;99.90;;;;;;4977684;28;19934;-69
2023/01/10 15:19:12;;;;;;;;;;;7.50;99.90;;;;;;4972344;28;19981;-68
2023/01/10 15:21:43;;;;;;;;;;;7.40;99.90;;;;;;4972028;28;19926;-69
2023/01/10 15:24:23;;;;;;;;;;;7.40;99.90;;;;;;4974132;28;19926;-68
2023/01/10 15:26:51;;;;;;;;;;;7.30;99.90;;;;;;4973764;28;20435;-69
2023/01/10 15:29:21;;;;;;;;;;;7.20;99.90;;;;;;4973548;28;19930;-69
2023/01/10 15:31:48;;;;;;;;;;;7.30;99.90;;;;;;4973798;28;19927;-72
2023/01/10 15:34:18;;;;;;;;;;;7.20;99.90;;;;;;4974178;28;19934;-72
2023/01/10 15:36:46;;;;;;;;;;;7.20;99.90;;;;;;4973991;28;19988;-69
2023/01/10 15:39:18;;;;;;;;;;;7.20;99.90;;;;;;4971373;28;19926;-69
2023/01/10 15:41:45;;;;;;;;;;;7.20;99.90;;;;;;4970864;28;19930;-68
2023/01/10 15:44:21;;;;;;;;;;;7.10;99.90;;;;;;4971673;28;20479;-68
2023/01/10 15:46:55;;;;;;;;;;;7.10;99.90;;;;;;4968118;28;19930;-68
2023/01/10 15:49:24;;;;;;;;;;;7.10;99.90;;;;;;4973278;28;19927;-68
2023/01/10 15:51:51;;;;;;;;;;;7.10;99.90;;;;;;4973438;28;20397;-68
2023/01/10 15:54:29;;;;;;;;;;;7.10;99.90;;;;;;4973575;28;19930;-69
2023/01/10 15:56:58;;;;;;;;;;;7.00;99.90;;;;;;4973867;28;19926;-69
2023/01/10 15:59:27;;;;;;;;;;;7.00;99.90;;;;;;4973391;28;19926;-69
2023/01/10 16:01:54;;;;;;;;;;;7.00;99.90;;;;;;4973508;28;19926;-70
2023/01/10 16:04:21;;;;;;;;;;;6.90;99.90;;;;;;4966776;28;20393;-69
2023/01/10 16:06:50;;;;;;;;;;;6.90;99.90;;;;;;4973640;28;19981;-68
2023/01/10 16:09:19;;;;;;;;;;;6.90;99.90;;;;;;4972967;28;19933;-68
2023/01/10 16:14:32;;;;;;;;;;;6.90;99.90;;;;;;4966637;28;20385;-73
2023/01/10 16:16:59;;;;;;;;;;;6.90;99.90;;;;;;4973061;28;20389;-75
2023/01/10 16:19:25;;;;;;;;;;;6.90;99.90;;;;;;4972755;28;19930;-70
2023/01/10 16:21:57;;;;;;;;;;;6.90;99.90;;;;;;4972934;28;19926;-70
2023/01/10 16:24:26;;;;;;;;;;;6.90;99.90;;;;;;4972935;28;20477;-69
2023/01/10 16:26:54;;;;;;;;;;;6.90;99.90;;;;;;4973074;28;19949;-70
2023/01/10 16:29:21;;;;;;;;;;;6.90;99.90;;;;;;4968989;28;19965;-69
2023/01/10 16:31:48;;;;;;;;;;;6.90;99.90;;;;;;4971773;28;20021;-69
2023/01/10 16:34:15;;;;;;;;;;;6.80;99.90;;;;;;4968847;28;20401;-69
2023/01/10 16:36:42;;;;;;;;;;;6.90;99.90;;;;;;4972657;28;19941;-68
2023/01/10 16:39:14;;;;;;;;;;;6.90;99.90;;;;;;4972153;28;19929;-68
2023/01/10 16:44:26;;;;;;;;;;;7.00;99.90;;;;;;4972505;28;20004;-69
2023/01/10 16:46:53;;;;;;;;;;;7.00;99.90;;;;;;4968172;28;19945;-68
2023/01/10 16:49:20;;;;;;;;;;;7.00;99.90;;;;;;4971774;28;20012;-69
2023/01/10 16:51:47;;;;;;;;;;;6.90;99.90;;;;;;4972563;28;19926;-68
2023/01/10 16:54:16;;;;;;;;;;;6.80;99.90;;;;;;4972355;28;19933;-69
2023/01/10 16:56:44;;;;;;;;;;;6.80;99.90;;;;;;4972381;28;20021;-68
2023/01/10 16:59:10;;;;;;;;;;;6.90;99.90;;;;;;4970304;28;19926;-68
2023/01/10 17:01:39;;;;;;;;;;;6.90;99.90;;;;;;4968912;28;19926;-68
2023/01/10 17:04:06;;;;;;;;;;;6.90;99.90;;;;;;4971800;28;19927;-68
2023/01/10 17:06:33;;;;;;;;;;;6.90;99.90;;;;;;4972060;28;19933;-68
2023/01/10 17:09:00;;;;;;;;;;;7.00;99.90;;;;;;4971846;28;19945;-70
2023/01/10 17:11:29;;;;;;;;;;;7.00;99.90;;;;;;4971861;28;20320;-71
2023/01/10 17:13:57;;;;;;;;;;;6.90;99.90;;;;;;4972013;28;20392;-71
2023/01/10 17:16:24;;;;;;;;;;;7.00;99.90;;;;;;4969027;28;19981;-74
2023/01/10 17:18:51;;;;;;;;;;;7.00;99.90;;;;;;4971729;28;19926;-71
2023/01/10 17:21:19;;;;;;;;;;;7.00;99.90;;;;;;4971532;28;19930;-75
2023/01/10 17:23:46;;;;;;;;;;;7.00;99.90;;;;;;4972113;28;19934;-72
2023/01/10 17:26:14;;;;;;;;;;;7.00;99.90;;;;;;4972266;28;19934;-71
2023/01/10 17:28:43;;;;;;;;;;;7.10;99.90;;;;;;4968004;28;20396;-72
2023/01/10 17:31:10;;;;;;;;;;;7.10;99.90;;;;;;4964609;28;19969;-70
2023/01/10 17:33:37;;;;;;;;;;;7.10;99.90;;;;;;4971856;28;19930;-67
2023/01/10 17:36:04;;;;;;;;;;;7.10;99.90;;;;;;4970998;28;20427;-66
2023/01/10 17:38:31;;;;;;;;;;;7.20;99.90;;;;;;4968801;28;19933;-66
2023/01/10 17:41:00;;;;;;;;;;;7.30;99.90;;;;;;4971280;28;19981;-67
2023/01/10 17:43:27;;;;;;;;;;;7.30;99.90;;;;;;4963740;28;19929;-67
2023/01/10 17:45:57;;;;;;;;;;;7.50;99.90;;;;;;4971852;28;20412;-67
2023/01/10 17:48:24;;;;;;;;;;;7.50;99.90;;;;;;4971963;28;19927;-67
2023/01/10 17:50:55;;;;;;;;;;;7.60;99.90;;;;;;4968413;28;19933;-68
2023/01/10 17:53:22;;;;;;;;;;;7.70;99.90;;;;;;4969186;28;19930;-67
2023/01/10 17:55:49;;;;;;;;;;;7.80;99.90;;;;;;4971607;28;20341;-68
2023/01/10 17:58:16;;;;;;;;;;;7.80;99.90;;;;;;4970751;28;19982;-67
2023/01/10 18:00:44;;;;;;;;;;;7.90;99.90;;;;;;4974102;28;20439;-68
2023/01/10 18:03:12;;;;;;;;;;;7.90;99.90;;;;;;4971886;28;20389;-68
2023/01/10 18:05:39;;;;;;;;;;;8.10;99.90;;;;;;4971742;28;20431;-68
2023/01/10 18:08:06;;;;;;;;;;;8.10;99.90;;;;;;4971707;28;20500;-67
2023/01/10 18:10:33;;;;;;;;;;;8.10;99.90;;;;;;4971151;28;19957;-68
2023/01/10 18:13:00;;;;;;;;;;;8.20;99.90;;;;;;4974309;28;19930;-68
2023/01/10 18:15:27;;;;;;;;;;;8.20;99.90;;;;;;4975178;28;19934;-68
2023/01/10 18:17:54;;;;;;;;;;;8.20;99.90;;;;;;4975503;28;19977;-68
2023/01/10 18:20:22;;;;;;;;;;;8.20;99.90;;;;;;4975132;28;19930;-68
2023/01/10 18:25:33;;;;;;;;;;;8.30;99.90;;;;;;4975192;28;19923;-67
2023/01/10 18:28:00;;;;;;;;;;;8.40;99.90;;;;;;4975255;28;19926;-70
2023/01/10 18:30:26;;;;;;;;;;;8.40;99.90;;;;;;4974796;28;19926;-70
2023/01/10 18:32:54;;;;;;;;;;;8.50;99.90;;;;;;4975130;28;20403;-67
2023/01/10 18:35:22;;;;;;;;;;;8.50;99.90;;;;;;4976371;28;19951;-69
2023/01/10 18:37:49;;;;;;;;;;;8.60;99.90;;;;;;4975614;28;19930;-67
2023/01/10 18:40:15;;;;;;;;;;;8.50;99.90;;;;;;4975116;28;19926;-68
2023/01/10 18:42:43;;;;;;;;;;;8.50;99.90;;;;;;4975061;28;20025;-68
2023/01/10 18:45:10;;;;;;;;;;;8.50;99.90;;;;;;4973686;28;19930;-67
2023/01/10 18:47:37;;;;;;;;;;;8.50;99.90;;;;;;4974939;28;19933;-68
2023/01/10 18:50:04;;;;;;;;;;;8.50;99.90;;;;;;4970150;28;19927;-69
2023/01/10 18:52:32;;;;;;;;;;;8.50;99.90;;;;;;4972018;28;19950;-70
2023/01/10 18:54:59;;;;;;;;;;;8.50;99.90;;;;;;4974394;28;19926;-69
2023/01/10 18:57:26;;;;;;;;;;;8.50;99.90;;;;;;4971302;28;19958;-69
2023/01/10 18:59:53;;;;;;;;;;;8.50;99.90;;;;;;4970665;28;19926;-68